createdAt,value
2017-09-13T00:01:30.578Z,3.63
2017-09-13T00:03:58.895Z,4.40
2017-09-13T00:06:43.357Z,5.40
2017-09-13T00:09:10.913Z,5.43
2017-09-13T00:11:38.452Z,4.30
2017-09-13T00:14:06.011Z,4.70
2017-09-13T00:16:33.542Z,5.37
2017-09-13T00:19:01.875Z,5.13
2017-09-13T00:21:29.413Z,4.20
2017-09-13T00:23:56.967Z,4.70
2017-09-13T00:26:24.504Z,4.43
2017-09-13T00:28:52.839Z,4.70
2017-09-13T00:31:20.375Z,5.60
2017-09-13T00:33:47.940Z,6.07
2017-09-13T00:36:15.480Z,5.27
2017-09-13T00:38:43.055Z,4.00
2017-09-13T00:41:10.600Z,4.80
2017-09-13T00:43:38.143Z,4.50
2017-09-13T00:46:06.467Z,3.90
2017-09-13T00:48:34.012Z,4.67
2017-09-13T00:51:01.583Z,4.93
2017-09-13T00:53:29.127Z,4.57
2017-09-13T00:55:56.683Z,4.80
2017-09-13T00:58:24.223Z,4.53
2017-09-13T01:00:52.550Z,5.60
2017-09-13T01:03:20.088Z,6.17
2017-09-13T01:05:47.652Z,4.50
2017-09-13T01:08:15.186Z,3.93
2017-09-13T01:10:42.750Z,3.63
2017-09-13T01:13:10.287Z,3.70
2017-09-13T01:15:38.636Z,3.90
2017-09-13T01:18:06.198Z,3.80
2017-09-13T01:20:33.763Z,4.67
2017-09-13T01:23:01.316Z,4.47
2017-09-13T01:25:28.889Z,4.50
2017-09-13T01:27:56.426Z,5.73
2017-09-13T01:30:23.991Z,6.90
2017-09-13T01:32:51.525Z,8.50
2017-09-13T01:35:19.083Z,8.23
2017-09-13T01:37:46.616Z,5.90
2017-09-13T01:40:14.947Z,5.07
2017-09-13T01:42:42.494Z,5.10
2017-09-13T01:45:10.035Z,5.40
2017-09-13T01:47:37.587Z,5.93
2017-09-13T01:50:05.119Z,9.57
2017-09-13T01:52:33.444Z,10.23
2017-09-13T01:55:00.978Z,7.83
2017-09-13T01:57:29.300Z,6.23
2017-09-13T01:59:56.833Z,6.20
2017-09-13T02:02:24.391Z,5.40
2017-09-13T02:04:51.919Z,5.17
2017-09-13T02:07:20.249Z,4.90
2017-09-13T02:09:47.780Z,3.93
2017-09-13T02:12:15.347Z,4.03
2017-09-13T02:14:42.891Z,3.97
2017-09-13T02:17:10.454Z,4.40
2017-09-13T02:19:37.994Z,4.77
2017-09-13T02:22:06.333Z,4.50
2017-09-13T02:24:33.870Z,5.50
2017-09-13T02:27:01.426Z,5.43
2017-09-13T02:29:28.971Z,4.80
2017-09-13T02:31:56.540Z,5.37
2017-09-13T02:34:24.080Z,5.53
2017-09-13T02:36:52.407Z,5.50
2017-09-13T02:39:19.935Z,4.90
2017-09-13T02:41:47.494Z,4.70
2017-09-13T02:44:15.036Z,5.07
2017-09-13T02:46:42.588Z,4.80
2017-09-13T02:49:10.928Z,4.10
2017-09-13T02:51:38.463Z,3.50
2017-09-13T02:54:06.019Z,3.70
2017-09-13T02:56:33.559Z,5.37
2017-09-13T02:59:01.118Z,4.10
2017-09-13T03:01:28.663Z,4.03
2017-09-13T03:03:56.997Z,3.63
2017-09-13T03:06:24.535Z,4.40
2017-09-13T03:08:52.095Z,3.97
2017-09-13T03:11:19.630Z,4.27
2017-09-13T03:13:47.194Z,4.80
2017-09-13T03:16:14.731Z,4.20
2017-09-13T03:18:42.295Z,4.40
2017-09-13T03:21:10.599Z,4.03
2017-09-13T03:23:38.171Z,5.70
2017-09-13T03:26:05.711Z,4.50
2017-09-13T03:28:34.031Z,3.77
2017-09-13T03:31:01.578Z,3.93
2017-09-13T03:33:29.137Z,2.97
2017-09-13T03:35:56.676Z,3.40
2017-09-13T03:38:24.235Z,3.80
2017-09-13T03:40:51.767Z,3.63
2017-09-13T03:43:20.095Z,2.67
2017-09-13T03:45:47.639Z,2.97
2017-09-13T03:48:15.190Z,3.17
2017-09-13T03:50:42.737Z,3.53
2017-09-13T03:53:11.043Z,3.00
2017-09-13T03:55:38.599Z,2.93
2017-09-13T03:58:06.142Z,3.20
2017-09-13T04:00:33.712Z,3.20
2017-09-13T04:03:01.255Z,3.40
2017-09-13T04:05:28.817Z,3.63
2017-09-13T04:07:57.109Z,4.03
2017-09-13T04:10:24.663Z,3.20
2017-09-13T04:12:52.199Z,4.63
2017-09-13T04:15:20.537Z,6.00
2017-09-13T04:17:48.840Z,6.50
2017-09-13T04:20:16.396Z,4.33
2017-09-13T04:22:43.935Z,5.47
2017-09-13T04:25:11.502Z,4.50
2017-09-13T04:27:39.052Z,5.30
2017-09-13T04:30:06.612Z,5.00
2017-09-13T04:32:34.160Z,4.20
2017-09-13T04:35:01.735Z,5.10
2017-09-13T04:37:29.273Z,4.77
2017-09-13T04:39:56.838Z,4.20
2017-09-13T04:42:24.375Z,5.40
2017-09-13T04:44:51.934Z,5.00
2017-09-13T04:47:19.466Z,4.73
2017-09-13T04:49:47.818Z,5.07
2017-09-13T04:52:15.359Z,5.60
2017-09-13T04:54:42.901Z,5.57
2017-09-13T04:57:10.468Z,4.60
2017-09-13T04:59:38.006Z,4.87
2017-09-13T05:02:05.578Z,4.97
2017-09-13T05:04:33.116Z,5.20
2017-09-13T05:07:01.447Z,5.23
2017-09-13T05:09:28.995Z,5.73
2017-09-13T05:11:56.555Z,5.63
2017-09-13T05:14:25.098Z,5.87
2017-09-13T05:16:53.422Z,5.33
2017-09-13T05:19:20.972Z,4.53
2017-09-13T05:21:49.251Z,5.07
2017-09-13T05:24:16.822Z,4.57
2017-09-13T05:26:44.524Z,5.70
2017-09-13T05:29:12.834Z,4.60
2017-09-13T05:31:40.439Z,5.30
2017-09-13T05:34:07.982Z,4.43
2017-09-13T05:36:35.551Z,5.30
2017-09-13T05:39:03.090Z,5.60
2017-09-13T05:41:36.832Z,5.57
2017-09-13T05:44:04.359Z,5.50
2017-09-13T05:46:31.919Z,4.90
2017-09-13T05:48:59.455Z,6.60
2017-09-13T05:51:27.023Z,7.07
2017-09-13T05:53:54.548Z,6.07
2017-09-13T05:56:22.858Z,6.00
2017-09-13T05:58:50.424Z,6.60
2017-09-13T06:01:18.448Z,6.33
2017-09-13T06:03:46.016Z,6.20
2017-09-13T06:06:14.326Z,7.30
2017-09-13T06:08:41.898Z,6.50
2017-09-13T06:11:09.434Z,6.90
2017-09-13T06:13:36.992Z,5.97
2017-09-13T06:16:04.541Z,9.57
2017-09-13T06:18:32.877Z,9.20
2017-09-13T06:21:00.415Z,7.60
2017-09-13T06:23:27.980Z,5.93
2017-09-13T06:25:55.514Z,6.60
2017-09-13T06:28:23.080Z,5.77
2017-09-13T06:30:50.615Z,5.40
2017-09-13T06:33:18.952Z,5.80
2017-09-13T06:35:46.489Z,6.00
2017-09-13T06:38:14.051Z,8.10
2017-09-13T06:40:41.588Z,9.20
2017-09-13T06:43:09.147Z,6.10
2017-09-13T06:45:36.693Z,6.27
2017-09-13T06:48:05.023Z,6.30
2017-09-13T06:50:32.569Z,7.00
2017-09-13T06:53:00.132Z,6.80
2017-09-13T06:55:27.663Z,5.93
2017-09-13T06:57:55.196Z,5.80
2017-09-13T07:00:23.523Z,5.60
2017-09-13T07:02:51.061Z,5.47
2017-09-13T07:05:18.627Z,5.90
2017-09-13T07:07:46.163Z,5.60
2017-09-13T07:10:13.735Z,5.43
2017-09-13T07:12:41.271Z,5.43
2017-09-13T07:15:09.595Z,5.80
2017-09-13T07:17:37.131Z,6.90
2017-09-13T07:20:04.695Z,7.80
2017-09-13T07:22:32.230Z,8.77
2017-09-13T07:25:00.554Z,8.63
2017-09-13T07:27:28.100Z,6.30
2017-09-13T07:29:55.669Z,6.80
2017-09-13T07:32:23.203Z,5.97
2017-09-13T07:34:51.515Z,5.27
2017-09-13T07:37:19.044Z,5.40
2017-09-13T07:39:46.605Z,6.10
2017-09-13T07:42:14.147Z,5.27
2017-09-13T07:44:42.478Z,5.53
2017-09-13T07:47:10.007Z,4.97
2017-09-13T07:49:37.572Z,5.40
2017-09-13T07:52:05.113Z,5.17
2017-09-13T07:54:33.438Z,5.40
2017-09-13T07:57:00.963Z,5.37
2017-09-13T07:59:28.527Z,6.50
2017-09-13T08:01:56.072Z,6.67
2017-09-13T08:04:24.414Z,5.87
2017-09-13T08:06:51.963Z,6.27
2017-09-13T08:09:19.501Z,5.30
2017-09-13T08:11:47.051Z,4.67
2017-09-13T08:14:14.578Z,3.53
2017-09-13T08:16:42.902Z,4.00
2017-09-13T08:19:10.435Z,4.10
2017-09-13T08:21:38.001Z,4.07
2017-09-13T08:24:05.540Z,4.03
2017-09-13T08:26:33.861Z,4.40
2017-09-13T08:29:01.388Z,3.90
2017-09-13T08:31:28.938Z,4.40
2017-09-13T08:33:57.231Z,3.83
2017-09-13T08:36:24.792Z,3.93
2017-09-13T08:38:52.324Z,3.90
2017-09-13T08:41:20.647Z,3.50
2017-09-13T08:43:48.178Z,3.87
2017-09-13T08:46:15.727Z,5.07
2017-09-13T08:48:44.037Z,5.17
2017-09-13T08:51:11.591Z,4.77
2017-09-13T08:53:39.118Z,4.00
2017-09-13T08:56:07.445Z,5.67
2017-09-13T08:58:34.980Z,8.10
2017-09-13T09:01:02.549Z,5.47
2017-09-13T09:03:30.089Z,8.03
2017-09-13T09:05:57.669Z,4.50
2017-09-13T09:08:25.197Z,5.30
2017-09-13T09:10:53.494Z,5.70
2017-09-13T09:13:21.051Z,5.70
2017-09-13T09:15:48.592Z,3.27
2017-09-13T09:18:16.921Z,2.87
2017-09-13T09:20:44.455Z,3.27
2017-09-13T09:23:12.006Z,3.00
2017-09-13T09:25:39.549Z,2.80
2017-09-13T09:28:07.884Z,2.80
2017-09-13T09:30:35.416Z,2.17
2017-09-13T09:33:03.010Z,3.10
2017-09-13T09:35:30.551Z,3.13
2017-09-13T09:37:58.098Z,2.93
2017-09-13T09:40:25.652Z,2.60
2017-09-13T09:42:53.207Z,3.40
2017-09-13T09:45:20.735Z,2.27
2017-09-13T09:47:48.283Z,2.50
2017-09-13T09:50:15.824Z,2.47
2017-09-13T09:52:43.371Z,2.10
2017-09-13T09:55:10.898Z,2.00
2017-09-13T09:57:38.451Z,2.50
2017-09-13T10:00:06.747Z,2.50
2017-09-13T10:02:34.317Z,2.10
2017-09-13T10:05:01.845Z,2.40
2017-09-13T10:07:30.142Z,2.70
2017-09-13T10:09:57.698Z,1.87
2017-09-13T10:12:25.231Z,2.40
2017-09-13T10:14:53.555Z,2.00
2017-09-13T10:17:21.095Z,2.17
2017-09-13T10:19:48.660Z,3.00
2017-09-13T10:22:16.187Z,2.40
2017-09-13T10:24:44.516Z,2.10
2017-09-13T10:27:12.056Z,2.93
2017-09-13T10:29:39.611Z,3.20
2017-09-13T10:32:07.142Z,2.73
2017-09-13T10:34:35.459Z,3.03
2017-09-13T10:37:02.987Z,2.40
2017-09-13T10:39:31.320Z,2.80
2017-09-13T10:41:58.846Z,2.50
2017-09-13T10:44:26.400Z,2.73
2017-09-13T10:46:53.937Z,3.17
2017-09-13T10:49:22.263Z,2.73
2017-09-13T10:51:49.793Z,3.30
2017-09-13T10:54:17.344Z,2.53
2017-09-13T10:56:45.643Z,2.80
2017-09-13T10:59:13.202Z,2.80
2017-09-13T11:01:40.730Z,2.50
2017-09-13T11:04:09.072Z,3.13
2017-09-13T11:06:36.599Z,2.60
2017-09-13T11:09:04.140Z,2.97
2017-09-13T11:11:32.467Z,3.30
2017-09-13T11:14:00.771Z,3.00
2017-09-13T11:16:28.339Z,2.70
2017-09-13T11:18:55.862Z,2.50
2017-09-13T11:21:23.425Z,2.73
2017-09-13T11:23:50.969Z,2.70
2017-09-13T11:26:18.530Z,2.67
2017-09-13T11:28:46.051Z,2.40
2017-09-13T11:31:14.366Z,2.60
2017-09-13T11:33:41.900Z,2.63
2017-09-13T11:36:09.456Z,3.13
2017-09-13T11:38:37.748Z,2.67
2017-09-13T11:41:05.296Z,2.77
2017-09-13T11:43:32.827Z,2.27
2017-09-13T11:46:00.375Z,2.67
2017-09-13T11:48:27.907Z,2.77
2017-09-13T11:50:55.457Z,2.10
2017-09-13T11:53:22.984Z,2.57
2017-09-13T11:55:51.309Z,2.80
2017-09-13T11:58:18.840Z,1.87
2017-09-13T12:00:46.392Z,2.10
2017-09-13T12:03:13.915Z,1.90
2017-09-13T12:05:41.475Z,1.70
2017-09-13T12:08:09.007Z,1.80
2017-09-13T12:10:36.535Z,1.57
2017-09-13T12:13:04.097Z,1.70
2017-09-13T12:15:31.635Z,1.80
2017-09-13T12:17:59.958Z,1.43
2017-09-13T12:20:27.488Z,1.97
2017-09-13T12:22:55.044Z,2.00
2017-09-13T12:25:22.584Z,1.70
2017-09-13T12:27:50.922Z,2.07
2017-09-13T12:30:18.462Z,2.07
2017-09-13T12:32:46.025Z,1.97
2017-09-13T12:35:13.569Z,2.50
2017-09-13T12:37:41.127Z,2.40
2017-09-13T12:40:08.658Z,2.37
2017-09-13T12:42:36.984Z,2.33
2017-09-13T12:45:04.511Z,2.13
2017-09-13T12:47:32.830Z,2.37
2017-09-13T12:50:00.356Z,2.60
2017-09-13T12:52:27.912Z,2.63
2017-09-13T12:54:55.443Z,2.50
2017-09-13T12:57:23.000Z,2.97
2017-09-13T12:59:50.526Z,2.57
2017-09-13T13:02:18.078Z,2.57
2017-09-13T13:04:45.618Z,2.77
2017-09-13T13:07:13.171Z,2.70
2017-09-13T13:09:40.702Z,2.93
2017-09-13T13:12:08.263Z,3.43
2017-09-13T13:14:36.572Z,3.40
2017-09-13T13:17:04.103Z,3.17
2017-09-13T13:19:32.428Z,3.43
2017-09-13T13:21:59.960Z,3.80
2017-09-13T13:24:28.288Z,2.50
2017-09-13T13:26:55.823Z,3.97
2017-09-13T13:29:23.370Z,3.50
2017-09-13T13:31:50.895Z,3.17
2017-09-13T13:34:18.457Z,3.17
2017-09-13T13:36:46.758Z,3.30
2017-09-13T13:39:14.331Z,3.90
2017-09-13T13:41:41.933Z,3.40
2017-09-13T13:44:09.513Z,3.60
2017-09-13T13:46:37.848Z,3.30
2017-09-13T13:49:05.421Z,3.20
2017-09-13T13:51:33.021Z,3.30
2017-09-13T13:54:01.380Z,3.87
2017-09-13T13:56:29.699Z,3.80
2017-09-13T13:58:57.256Z,3.47
2017-09-13T14:01:24.808Z,3.93
2017-09-13T14:03:52.427Z,3.10
2017-09-13T14:06:20.009Z,3.47
2017-09-13T14:08:48.346Z,3.60
2017-09-13T14:11:15.908Z,3.53
2017-09-13T14:13:43.471Z,6.17
2017-09-13T14:16:11.032Z,3.20
2017-09-13T14:18:38.574Z,3.43
2017-09-13T14:21:06.135Z,4.03
2017-09-13T14:23:33.658Z,6.27
2017-09-13T14:26:01.999Z,5.70
2017-09-13T14:28:30.299Z,4.00
2017-09-13T14:30:58.628Z,3.40
2017-09-13T14:33:26.172Z,3.30
2017-09-13T14:35:53.729Z,3.40
2017-09-13T14:38:21.270Z,3.83
2017-09-13T14:40:49.596Z,3.30
2017-09-13T14:43:17.131Z,3.97
2017-09-13T14:45:44.687Z,4.10
2017-09-13T14:48:12.242Z,3.63
2017-09-13T14:50:39.798Z,4.33
2017-09-13T14:53:07.395Z,3.70
2017-09-13T14:55:35.028Z,4.33
2017-09-13T14:58:02.608Z,4.40
2017-09-13T15:00:30.166Z,4.13
2017-09-13T15:02:57.697Z,4.13
2017-09-13T15:05:26.019Z,4.73
2017-09-13T15:07:53.547Z,5.10
2017-09-13T15:10:21.112Z,5.07
2017-09-13T15:12:48.667Z,4.90
2017-09-13T15:15:16.295Z,5.40
2017-09-13T15:17:44.604Z,4.90
2017-09-13T15:20:12.147Z,4.40
2017-09-13T15:22:40.479Z,5.30
2017-09-13T15:25:08.016Z,4.80
2017-09-13T15:27:35.572Z,4.23
2017-09-13T15:30:03.112Z,4.50
2017-09-13T15:32:30.675Z,4.80
2017-09-13T15:34:58.211Z,5.17
2017-09-13T15:37:26.528Z,4.80
2017-09-13T15:39:54.058Z,6.73
2017-09-13T15:42:22.383Z,6.33
2017-09-13T15:44:49.919Z,6.80
2017-09-13T15:47:17.479Z,5.60
2017-09-13T15:49:45.011Z,6.23
2017-09-13T15:52:13.331Z,6.10
2017-09-13T15:54:40.860Z,4.33
2017-09-13T15:57:08.423Z,5.00
2017-09-13T15:59:35.951Z,5.60
2017-09-13T16:02:03.517Z,5.17
2017-09-13T16:04:31.046Z,5.60
2017-09-13T16:06:58.599Z,4.80
2017-09-13T16:09:26.902Z,4.97
2017-09-13T16:12:00.379Z,4.20
2017-09-13T16:14:27.918Z,4.30
2017-09-13T16:16:55.480Z,3.90
2017-09-13T16:19:23.015Z,4.07
2017-09-13T16:21:50.580Z,4.20
2017-09-13T16:24:18.120Z,3.50
2017-09-13T16:26:46.419Z,3.50
2017-09-13T16:29:13.979Z,3.80
2017-09-13T16:31:41.515Z,3.23
2017-09-13T16:34:09.969Z,3.90
2017-09-13T16:36:37.523Z,4.10
2017-09-13T16:39:05.085Z,4.20
2017-09-13T16:41:32.627Z,5.90
2017-09-13T16:44:00.189Z,5.57
2017-09-13T16:46:27.722Z,5.20
2017-09-13T16:48:55.276Z,5.07
2017-09-13T16:51:32.829Z,4.70
2017-09-13T16:54:00.387Z,3.93
2017-09-13T16:56:27.932Z,4.27
2017-09-13T16:58:55.500Z,4.07
2017-09-13T17:01:23.048Z,4.07
2017-09-13T17:03:50.599Z,3.90
2017-09-13T17:06:18.145Z,3.87
2017-09-13T17:08:45.717Z,4.17
2017-09-13T17:11:13.243Z,3.80
2017-09-13T17:13:40.799Z,3.83
2017-09-13T17:16:08.337Z,3.40
2017-09-13T17:18:36.662Z,4.50
2017-09-13T17:21:04.201Z,3.93
2017-09-13T17:23:31.760Z,3.87
2017-09-13T17:25:59.303Z,4.03
2017-09-13T17:28:27.633Z,3.90
2017-09-13T17:30:55.956Z,4.10
2017-09-13T17:33:24.259Z,4.63
2017-09-13T17:35:51.839Z,4.10
2017-09-13T17:38:19.376Z,3.40
2017-09-13T17:40:46.935Z,4.00
2017-09-13T17:43:14.472Z,4.27
2017-09-13T17:45:42.807Z,4.23
2017-09-13T17:48:10.342Z,5.00
2017-09-13T17:50:37.898Z,3.80
2017-09-13T17:53:05.441Z,7.33
2017-09-13T17:55:33.811Z,3.73
2017-09-13T17:58:02.121Z,3.40
2017-09-13T18:00:29.676Z,4.00
2017-09-13T18:02:57.206Z,3.57
2017-09-13T18:05:25.523Z,3.53
2017-09-13T18:07:53.052Z,4.20
2017-09-13T18:10:20.616Z,3.97
2017-09-13T18:12:48.160Z,4.90
2017-09-13T18:15:16.484Z,4.37
2017-09-13T18:17:44.786Z,3.40
2017-09-13T18:20:12.489Z,6.27
2017-09-13T18:22:40.051Z,4.93
2017-09-13T18:25:08.375Z,4.60
2017-09-13T18:27:35.911Z,5.00
2017-09-13T18:30:03.473Z,4.10
2017-09-13T18:32:31.177Z,3.83
2017-09-13T18:34:58.748Z,4.87
2017-09-13T18:37:26.331Z,4.70
2017-09-13T18:39:53.916Z,4.20
2017-09-13T18:42:21.487Z,5.20
2017-09-13T18:44:49.199Z,3.70
2017-09-13T18:47:17.528Z,4.77
2017-09-13T18:49:45.099Z,3.67
2017-09-13T18:52:13.514Z,4.40
2017-09-13T18:54:41.027Z,3.80
2017-09-13T18:57:08.586Z,6.03
2017-09-13T18:59:36.117Z,5.17
2017-09-13T19:02:03.678Z,6.33
2017-09-13T19:04:31.216Z,6.40
2017-09-13T19:06:59.556Z,5.83
2017-09-13T19:09:27.103Z,6.27
2017-09-13T19:11:54.673Z,7.13
2017-09-13T19:14:22.217Z,5.73
2017-09-13T19:16:49.776Z,5.00
2017-09-13T19:19:17.320Z,7.03
2017-09-13T19:21:44.876Z,5.23
2017-09-13T19:24:12.407Z,4.70
2017-09-13T19:26:40.742Z,5.77
2017-09-13T19:29:08.276Z,5.10
2017-09-13T19:31:35.835Z,10.17
2017-09-13T19:34:03.375Z,8.13
2017-09-13T19:36:31.702Z,7.77
2017-09-13T19:38:59.271Z,7.40
2017-09-13T19:41:26.816Z,8.13
2017-09-13T19:43:54.587Z,5.40
2017-09-13T19:46:22.133Z,4.97
2017-09-13T19:48:49.713Z,3.60
2017-09-13T19:51:17.268Z,2.87
2017-09-13T19:53:44.840Z,3.87
2017-09-13T19:56:12.396Z,3.00
2017-09-13T19:58:40.114Z,3.60
2017-09-13T20:01:07.649Z,3.73
2017-09-13T20:03:36.052Z,2.97
2017-09-13T20:06:03.596Z,2.73
2017-09-13T20:08:31.914Z,3.70
2017-09-13T20:10:59.457Z,2.57
2017-09-13T20:13:27.024Z,3.07
2017-09-13T20:15:54.563Z,3.77
2017-09-13T20:18:22.120Z,3.13
2017-09-13T20:20:50.414Z,3.57
2017-09-13T20:23:17.996Z,3.67
2017-09-13T20:25:45.620Z,2.33
2017-09-13T20:28:13.939Z,3.20
2017-09-13T20:30:41.475Z,3.07
2017-09-13T20:33:09.071Z,2.80
2017-09-13T20:35:36.629Z,3.70
2017-09-13T20:38:04.183Z,3.10
2017-09-13T20:40:31.739Z,2.93
2017-09-13T20:42:59.267Z,4.27
2017-09-13T20:45:26.824Z,2.80
2017-09-13T20:47:54.364Z,2.80
2017-09-13T20:50:22.693Z,3.40
2017-09-13T20:52:50.218Z,2.40
2017-09-13T20:55:18.537Z,3.20
2017-09-13T20:57:46.065Z,3.10
2017-09-13T21:00:13.631Z,2.20
2017-09-13T21:02:41.163Z,2.43
2017-09-13T21:05:09.490Z,3.03
2017-09-13T21:07:37.018Z,2.53
2017-09-13T21:10:04.575Z,2.43
2017-09-13T21:12:32.099Z,3.27
2017-09-13T21:14:59.659Z,2.20
2017-09-13T21:17:27.186Z,2.33
2017-09-13T21:19:54.739Z,2.30
2017-09-13T21:22:22.276Z,2.60
2017-09-13T21:24:49.832Z,2.70
2017-09-13T21:27:17.363Z,2.40
2017-09-13T21:29:44.924Z,2.60
2017-09-13T21:32:13.219Z,2.70
2017-09-13T21:34:41.537Z,2.40
2017-09-13T21:37:09.078Z,3.03
2017-09-13T21:39:36.619Z,2.60
2017-09-13T21:42:04.947Z,2.43
2017-09-13T21:44:32.479Z,2.40
2017-09-13T21:47:00.038Z,2.80
2017-09-13T21:49:27.567Z,3.20
2017-09-13T21:51:55.883Z,2.60
2017-09-13T21:54:23.418Z,2.70
2017-09-13T21:56:50.976Z,3.20
2017-09-13T21:59:18.514Z,2.50
2017-09-13T22:01:46.855Z,2.90
2017-09-13T22:04:14.386Z,3.03
2017-09-13T22:06:41.944Z,3.27
2017-09-13T22:09:09.471Z,3.23
2017-09-13T22:11:37.795Z,3.60
2017-09-13T22:14:05.324Z,2.70
2017-09-13T22:16:33.644Z,3.50
2017-09-13T22:19:01.171Z,3.50
2017-09-13T22:21:28.733Z,3.07
2017-09-13T22:23:56.272Z,3.20
2017-09-13T22:26:24.587Z,3.37
2017-09-13T22:28:52.164Z,3.20
2017-09-13T22:51:53.105Z,3.07
2017-09-13T22:54:20.646Z,2.73
2017-09-13T22:56:48.969Z,2.53
2017-09-13T22:59:16.507Z,2.80
2017-09-13T23:01:44.072Z,2.10
2017-09-13T23:04:11.599Z,2.20
2017-09-13T23:06:39.939Z,3.07
2017-09-13T23:09:07.476Z,3.10
2017-09-13T23:17:41.339Z,2.40
2017-09-13T23:20:08.873Z,2.30
2017-09-13T23:22:36.435Z,2.23
2017-09-13T23:25:03.967Z,2.00
2017-09-13T23:27:32.290Z,1.90
2017-09-13T23:29:59.818Z,1.90
2017-09-13T23:32:27.376Z,1.80
2017-09-13T23:34:55.671Z,2.00
2017-09-13T23:37:23.212Z,1.50
2017-09-13T23:39:51.532Z,1.90
2017-09-13T23:42:19.055Z,1.90
2017-09-13T23:44:46.602Z,1.90
2017-09-13T23:47:22.844Z,1.70
2017-09-13T23:49:50.408Z,1.50
2017-09-13T23:52:17.935Z,1.60
2017-09-13T23:54:45.483Z,1.60
2017-09-13T23:57:13.030Z,1.57
2017-09-13T23:59:40.586Z,1.50
